Time;durP1;ratioP1;P1;durP2;ratioP2;P2;SDS_P1;SDS_P2;PMS_P1;PMS_P2;Temp;Humidity;BMP_temperature;BMP_pressure;BME280_temperature;BME280_humidity;BME280_pressure;Samples;Min_cycle;Max_cycle;Signal;HPM_P1;HPM_P2
2022/06/14 00:01:58;;;;;;;3.70;3.40;;;;;;;25.91;49.52;100884.16;5068182;28;20480;-67
2022/06/14 00:04:25;;;;;;;5.63;3.67;;;;;;;25.89;49.69;100880.91;5068629;28;20410;-67
2022/06/14 00:06:52;;;;;;;4.78;3.45;;;;;;;25.89;49.46;100872.75;5068814;28;20493;-67
2022/06/14 00:09:21;;;;;;;4.00;3.30;;;;;;;25.80;49.70;100877.06;5066507;28;20509;-66
2022/06/14 00:11:48;;;;;;;4.15;3.60;;;;;;;25.71;49.92;100871.34;5064856;28;20865;-67
2022/06/14 00:14:14;;;;;;;3.70;3.30;;;;;;;25.70;49.95;100877.06;5063635;28;20510;-67
2022/06/14 00:16:41;;;;;;;5.37;3.43;;;;;;;25.63;50.07;100884.63;5063484;28;20507;-68
2022/06/14 00:19:08;;;;;;;4.75;3.47;;;;;;;25.50;50.23;100883.22;5062592;28;20513;-67
2022/06/14 00:21:37;;;;;;;3.88;3.38;;;;;;;25.44;50.57;100885.09;5068265;28;20415;-67
2022/06/14 00:24:05;;;;;;;4.32;3.30;;;;;;;25.40;50.65;100881.28;5068491;28;20425;-68
2022/06/14 00:26:34;;;;;;;4.47;3.53;;;;;;;25.37;50.60;100879.91;5057120;28;20501;-68
2022/06/14 00:29:01;;;;;;;5.35;3.45;;;;;;;25.36;50.78;100880.19;5072793;28;20415;-68
2022/06/14 00:31:29;;;;;;;4.57;3.47;;;;;;;25.43;50.60;100880.75;5066787;28;20503;-68
2022/06/14 00:33:56;;;;;;;4.73;3.60;;;;;;;25.45;50.59;100878.59;5060356;28;20416;-68
2022/06/14 00:36:28;;;;;;;4.27;3.57;;;;;;;25.48;50.68;100879.94;5055860;28;20509;-68
2022/06/14 00:38:55;;;;;;;3.72;3.15;;;;;;;25.52;50.29;100875.63;5054474;28;20417;-68
2022/06/14 00:41:31;;;;;;;7.03;3.60;;;;;;;25.55;50.34;100875.09;5055037;28;20499;-68
2022/06/14 00:44:00;;;;;;;4.03;3.50;;;;;;;25.57;50.28;100881.09;5057936;28;20423;-67
2022/06/14 00:46:34;;;;;;;4.90;3.22;;;;;;;25.52;50.23;100884.59;5056576;28;20497;-68
2022/06/14 00:49:06;;;;;;;5.07;3.42;;;;;;;25.49;50.42;100879.69;5054365;28;20413;-68
2022/06/14 00:51:38;;;;;;;4.10;3.30;;;;;;;25.54;50.13;100879.72;5056031;28;20430;-66
2022/06/14 00:54:14;;;;;;;4.53;3.50;;;;;;;25.55;50.31;100880.50;5055335;28;20503;-68
2022/06/14 00:56:46;;;;;;;3.95;3.50;;;;;;;25.52;50.44;100881.88;5053587;28;20871;-67
2022/06/14 00:59:20;;;;;;;5.43;3.30;;;;;;;25.51;50.42;100884.84;5055775;28;20431;-67
2022/06/14 01:01:50;;;;;;;4.63;3.80;;;;;;;25.48;50.38;100888.09;5055483;28;20911;-67
2022/06/14 01:04:25;;;;;;;4.03;3.40;;;;;;;25.44;50.47;100895.13;5056128;28;20487;-67
2022/06/14 01:06:57;;;;;;;5.47;3.30;;;;;;;25.38;50.59;100895.09;5055267;28;20511;-68
2022/06/14 01:09:27;;;;;;;4.25;3.40;;;;;;;25.37;50.61;100892.66;5053978;28;20499;-69
2022/06/14 01:11:59;;;;;;;4.63;3.65;;;;;;;25.39;50.48;100887.81;5053522;28;20507;-68
2022/06/14 01:14:34;;;;;;;3.97;3.47;;;;;;;25.42;50.52;100887.25;5054529;28;20501;-68
2022/06/14 01:17:01;;;;;;;4.90;3.65;;;;;;;25.40;50.28;100880.47;5056033;28;20432;-68
2022/06/14 01:19:28;;;;;;;6.65;3.53;;;;;;;25.41;50.33;100879.38;5054735;28;20438;-68
2022/06/14 01:22:27;;;;;;;6.13;3.60;;;;;;;25.41;50.29;100879.38;5056380;28;20452;-67
2022/06/14 01:24:55;;;;;;;3.95;3.40;;;;;;;25.39;50.03;100874.22;5055428;28;21080;-67
2022/06/14 01:27:24;;;;;;;6.15;3.80;;;;;;;25.39;50.07;100885.09;5053381;28;20444;-67
2022/06/14 01:30:00;;;;;;;4.57;3.70;;;;;;;25.38;49.96;100880.72;5056653;28;20468;-68
2022/06/14 01:32:30;;;;;;;8.10;3.25;;;;;;;25.38;49.77;100880.72;5055097;28;20835;-67
2022/06/14 01:35:02;;;;;;;5.47;3.40;;;;;;;25.33;49.76;100881.50;5054502;28;20515;-67
2022/06/14 01:37:32;;;;;;;5.28;3.40;;;;;;;25.31;49.50;100877.44;5052433;28;20618;-67
2022/06/14 01:39:59;;;;;;;6.07;3.80;;;;;;;25.25;49.58;100883.94;5052281;28;20451;-68
2022/06/14 01:42:32;;;;;;;4.55;3.40;;;;;;;25.15;49.66;100881.94;5056211;28;20446;-67
2022/06/14 01:45:06;;;;;;;4.82;3.30;;;;;;;25.17;49.47;100885.19;5056504;28;20437;-67
2022/06/14 01:47:40;;;;;;;4.20;3.40;;;;;;;25.08;49.58;100884.88;5053590;28;21019;-66
2022/06/14 01:53:20;;;;;;;4.35;3.30;;;;;;;25.06;49.69;100891.66;5052891;28;20562;-67
2022/06/14 01:55:54;;;;;;;4.70;3.60;;;;;;;25.09;49.50;100891.16;5052202;28;21025;-68
2022/06/14 01:58:27;;;;;;;5.13;3.53;;;;;;;25.14;49.36;100902.03;5053838;28;20482;-67
2022/06/14 02:01:08;;;;;;;3.50;3.20;;;;;;;25.13;49.39;100898.47;5053085;28;20807;-67
2022/06/14 02:08:49;;;;;;;4.93;3.47;;;;;;;25.20;49.00;100892.81;5071690;27;20408;-68
2022/06/14 02:11:20;;;;;;;4.25;3.33;;;;;;;25.13;48.73;100903.91;5064280;28;20506;-66
2022/06/14 02:13:51;;;;;;;3.60;3.10;;;;;;;25.11;48.77;100897.94;5061325;28;20957;-66
2022/06/14 02:16:24;;;;;;;6.85;3.67;;;;;;;25.10;48.82;100909.03;5061542;28;20847;-66
2022/06/14 02:18:58;;;;;;;4.87;3.50;;;;;;;25.04;48.70;100907.38;5059132;28;20417;-66
2022/06/14 02:21:30;;;;;;;5.60;3.67;;;;;;;25.02;48.74;100913.06;5062059;28;20519;-67
2022/06/14 02:24:02;;;;;;;3.78;3.40;;;;;;;24.94;48.71;100911.69;5063602;28;20495;-66
2022/06/14 02:26:34;;;;;;;4.40;3.45;;;;;;;24.98;48.55;100907.34;5061781;28;20999;-68
2022/06/14 02:29:09;;;;;;;5.55;3.35;;;;;;;24.97;48.62;100916.59;5059962;28;20416;-66
2022/06/14 02:31:40;;;;;;;5.65;3.20;;;;;;;24.95;48.30;100918.72;5059758;28;20448;-68
2022/06/14 02:34:13;;;;;;;3.70;3.10;;;;;;;24.91;48.27;100914.91;5062925;28;20881;-66
2022/06/14 02:36:45;;;;;;;6.10;3.72;;;;;;;24.95;48.18;100915.19;5059093;28;20502;-68
2022/06/14 02:39:18;;;;;;;5.22;3.35;;;;;;;24.92;48.09;100915.72;5062414;28;20509;-69
2022/06/14 02:41:50;;;;;;;4.10;3.17;;;;;;;24.99;47.97;100921.72;5057146;28;20418;-68
2022/06/14 02:44:24;;;;;;;3.88;3.33;;;;;;;25.02;47.97;100918.50;5062678;28;20499;-68
2022/06/14 02:46:56;;;;;;;5.70;3.10;;;;;;;25.04;47.63;100927.19;5062082;28;20508;-68
2022/06/14 02:49:30;;;;;;;4.28;3.15;;;;;;;25.04;47.70;100932.59;5059753;28;20426;-68
2022/06/14 02:52:02;;;;;;;4.40;3.10;;;;;;;25.04;47.58;100937.22;5060518;28;20935;-67
2022/06/14 02:54:35;;;;;;;4.63;3.10;;;;;;;25.05;47.28;100936.13;5058757;28;20424;-68
2022/06/14 02:57:08;;;;;;;3.93;3.30;;;;;;;25.04;47.50;100935.31;5061316;28;20465;-69
2022/06/14 02:59:42;;;;;;;3.60;3.20;;;;;;;25.10;47.20;100930.75;5060234;28;20497;-68
2022/06/14 03:02:15;;;;;;;4.53;3.17;;;;;;;25.13;47.19;100936.47;5060949;28;20426;-68
2022/06/14 03:04:47;;;;;;;6.03;3.13;;;;;;;25.17;46.92;100931.31;5055974;28;21028;-68
2022/06/14 03:07:19;;;;;;;5.03;3.20;;;;;;;25.18;47.13;100941.91;5071057;28;20428;-68
2022/06/14 03:09:49;;;;;;;4.05;3.15;;;;;;;25.18;46.78;100933.78;5081510;28;20418;-69
2022/06/14 03:12:26;;;;;;;4.38;3.10;;;;;;;25.18;46.60;100936.50;5080753;28;20483;-67
2022/06/14 03:15:06;;;;;;;4.15;3.00;;;;;;;25.19;46.66;100932.72;5081082;28;20505;-68
2022/06/14 03:17:51;;;;;;;4.88;2.90;;;;;;;25.21;46.53;100935.16;5078165;28;20508;-69
2022/06/14 03:20:32;;;;;;;3.37;3.07;;;;;;;25.22;46.69;100942.22;5068502;28;20425;-68
2022/06/14 03:23:12;;;;;;;3.95;3.00;;;;;;;25.25;46.44;100935.50;5067808;28;20494;-69
2022/06/14 03:25:44;;;;;;;3.40;2.90;;;;;;;25.19;46.57;100940.84;5067049;28;20442;-68
2022/06/14 03:28:15;;;;;;;4.20;3.03;;;;;;;25.22;46.44;100939.50;5062364;28;20429;-68
2022/06/14 03:30:45;;;;;;;4.10;2.92;;;;;;;25.23;46.36;100937.59;5066639;28;20497;-68
2022/06/14 03:33:21;;;;;;;3.75;2.90;;;;;;;25.25;46.43;100940.91;5067301;28;21859;-68
2022/06/14 03:35:51;;;;;;;3.33;3.03;;;;;;;25.29;46.21;100952.88;5065891;28;20411;-68
2022/06/14 03:38:23;;;;;;;4.83;3.20;;;;;;;25.32;45.87;100947.72;5063659;28;20523;-68
2022/06/14 03:40:52;;;;;;;3.70;3.10;;;;;;;25.27;46.21;100958.56;5067147;28;20865;-68
2022/06/14 03:43:20;;;;;;;5.63;3.00;;;;;;;25.29;46.12;100959.09;5067097;28;20916;-68
2022/06/14 03:45:55;;;;;;;5.03;3.10;;;;;;;25.29;46.07;100966.44;5065804;28;20416;-69
2022/06/14 03:48:23;;;;;;;3.30;3.00;;;;;;;25.35;46.10;100968.09;5064414;28;20434;-68
2022/06/14 03:51:01;;;;;;;3.38;2.90;;;;;;;25.36;45.80;100967.03;5064126;28;20467;-68
2022/06/14 03:53:49;;;;;;;5.63;2.90;;;;;;;25.45;45.81;100983.63;5067295;28;20488;-67
2022/06/14 03:56:31;;;;;;;4.07;3.03;;;;;;;25.54;45.52;100982.03;5066297;28;20840;-69
2022/06/14 03:59:15;;;;;;;3.90;2.70;;;;;;;25.65;45.44;100972.88;5064009;28;20498;-69
2022/06/14 04:01:51;;;;;;;5.13;3.00;;;;;;;25.67;45.11;100978.03;5062568;28;20411;-70
2022/06/14 04:04:35;;;;;;;4.63;3.10;;;;;;;25.71;44.93;100979.13;5066232;28;20975;-70
2022/06/14 04:07:14;;;;;;;4.18;2.80;;;;;;;25.67;44.96;100984.25;5062874;28;20841;-70
2022/06/14 04:09:50;;;;;;;3.25;2.80;;;;;;;25.68;44.96;100979.69;5065449;28;21389;-68
2022/06/14 04:12:26;;;;;;;4.27;2.80;;;;;;;25.69;45.19;100979.38;5063972;28;20456;-69
2022/06/14 04:15:09;;;;;;;4.95;2.83;;;;;;;25.67;45.28;100984.25;5067712;28;20422;-70
2022/06/14 04:17:44;;;;;;;5.88;3.20;;;;;;;25.67;45.39;100981.56;5066279;28;20514;-68
2022/06/14 04:20:16;;;;;;;3.22;2.80;;;;;;;25.74;44.94;100984.03;5065388;28;20420;-69
2022/06/14 04:22:53;;;;;;;4.50;3.33;;;;;;;25.81;45.04;100984.59;5063346;28;20487;-70
2022/06/14 04:25:30;;;;;;;4.80;2.90;;;;;;;25.91;44.72;100987.38;5063996;28;20498;-70
2022/06/14 04:28:08;;;;;;;3.67;2.63;;;;;;;25.99;44.82;100985.25;5066389;28;21035;-70
2022/06/14 04:30:41;;;;;;;3.90;3.00;;;;;;;26.13;44.49;100987.19;5063723;28;20447;-69
2022/06/14 04:33:13;;;;;;;6.53;3.53;;;;;;;26.35;44.05;100990.78;5061210;28;20833;-70
2022/06/14 04:35:47;;;;;;;5.47;2.90;;;;;;;26.50;43.71;100985.34;5063674;28;20425;-70
2022/06/14 04:38:18;;;;;;;5.63;3.03;;;;;;;26.57;43.39;100985.91;5066353;28;20503;-69
2022/06/14 04:40:50;;;;;;;3.35;2.70;;;;;;;26.64;43.29;100994.63;5066017;28;20979;-70
2022/06/14 04:43:24;;;;;;;6.32;3.00;;;;;;;26.74;42.85;100991.13;5065692;28;20850;-68
2022/06/14 04:45:56;;;;;;;4.70;2.90;;;;;;;26.85;42.78;101000.91;5064055;28;20406;-70
2022/06/14 04:48:33;;;;;;;5.28;3.00;;;;;;;26.94;42.47;100998.47;5064185;28;20466;-68
2022/06/14 04:51:06;;;;;;;4.07;2.90;;;;;;;26.95;42.80;100997.34;5050777;28;20500;-69
2022/06/14 04:53:40;;;;;;;4.13;2.60;;;;;;;27.07;42.39;100999.81;5032849;28;20451;-68
2022/06/14 04:56:12;;;;;;;4.70;2.78;;;;;;;27.17;42.05;101007.13;5057497;28;20498;-67
2022/06/14 04:58:47;;;;;;;4.43;2.53;;;;;;;27.35;42.15;101005.78;5060339;28;20636;-70
2022/06/14 05:01:18;;;;;;;3.35;2.60;;;;;;;27.42;41.71;101006.31;5060080;28;20424;-72
2022/06/14 05:03:50;;;;;;;5.70;3.00;;;;;;;27.43;41.57;101008.75;5059071;28;20632;-72
2022/06/14 05:06:22;;;;;;;2.92;2.50;;;;;;;27.48;41.40;101010.66;5066756;28;20498;-71
2022/06/14 05:08:55;;;;;;;4.45;3.17;;;;;;;27.50;41.50;101021.28;5061435;28;20453;-70
2022/06/14 05:11:31;;;;;;;3.80;2.60;;;;;;;27.52;41.55;101019.09;5061926;28;20955;-70
2022/06/14 05:14:04;;;;;;;5.60;2.60;;;;;;;27.49;41.50;101017.72;5061058;28;20498;-71
2022/06/14 05:16:36;;;;;;;3.22;2.53;;;;;;;27.61;41.62;101028.31;5059747;28;20498;-72
2022/06/14 05:19:10;;;;;;;3.20;2.90;;;;;;;27.76;41.21;101019.28;5051464;28;20810;-71
2022/06/14 05:21:45;;;;;;;3.50;2.50;;;;;;;28.10;40.65;101029.53;5050961;28;20937;-72
2022/06/14 05:24:12;;;;;;;5.72;3.17;;;;;;;28.41;40.63;101027.44;5060604;28;20435;-72
2022/06/14 05:26:57;;;;;;;5.63;2.70;;;;;;;28.68;39.89;101027.00;5052940;28;20491;-72
2022/06/14 05:29:34;;;;;;;4.72;2.30;;;;;;;29.11;39.18;101029.09;5050002;28;20467;-71
2022/06/14 05:32:06;;;;;;;2.97;2.35;;;;;;;29.54;38.75;101035.53;5062998;28;20449;-72
2022/06/14 05:34:43;;;;;;;5.77;2.80;;;;;;;29.99;37.73;101029.84;5053178;28;20501;-67
2022/06/14 05:37:19;;;;;;;4.80;2.47;;;;;;;30.33;37.06;101036.22;5057228;28;20413;-72
2022/06/14 05:39:53;;;;;;;4.05;2.05;;;;;;;30.61;36.05;101037.19;5055555;28;20418;-73
2022/06/14 05:42:23;;;;;;;6.35;2.50;;;;;;;30.97;35.72;101040.22;5058173;28;20500;-72
2022/06/14 05:44:57;;;;;;;5.05;3.05;;;;;;;31.34;34.96;101035.72;5064997;28;20444;-72
2022/06/14 05:47:29;;;;;;;3.35;2.20;;;;;;;31.72;34.55;101032.81;5061898;28;20411;-74
2022/06/14 05:50:00;;;;;;;3.88;2.13;;;;;;;32.05;33.36;101035.44;5062397;28;20926;-72
2022/06/14 05:52:33;;;;;;;4.57;2.30;;;;;;;32.23;33.07;101035.59;5064520;28;20449;-73
2022/06/14 05:55:09;;;;;;;3.67;2.17;;;;;;;32.36;32.74;101043.00;5061852;28;20508;-73
2022/06/14 05:57:41;;;;;;;3.25;1.90;;;;;;;32.33;32.57;101040.88;5059919;28;20413;-74
2022/06/14 06:00:13;;;;;;;3.85;1.92;;;;;;;32.28;32.67;101047.28;5050506;28;20499;-71
2022/06/14 06:02:46;;;;;;;2.75;2.00;;;;;;;32.19;32.81;101051.88;5066401;28;20426;-73
2022/06/14 06:05:19;;;;;;;3.55;2.03;;;;;;;32.41;32.23;101048.34;5056821;28;20449;-73
2022/06/14 06:07:53;;;;;;;4.03;2.20;;;;;;;32.64;32.13;101048.41;5058067;28;20510;-74
2022/06/14 06:10:26;;;;;;;2.20;1.92;;;;;;;32.89;31.75;101050.53;5064183;28;20415;-72
2022/06/14 06:12:58;;;;;;;4.20;2.10;;;;;;;33.25;31.53;101054.31;5064134;28;20408;-74
2022/06/14 06:15:33;;;;;;;4.30;2.07;;;;;;;33.33;31.04;101067.28;5053584;28;20851;-78
2022/06/14 06:18:05;;;;;;;2.42;1.67;;;;;;;33.54;30.37;101064.78;5066731;28;20439;-77
2022/06/14 06:20:38;;;;;;;2.30;2.00;;;;;;;33.77;29.87;101067.50;5057092;28;20580;-76
2022/06/14 06:23:12;;;;;;;2.08;1.90;;;;;;;33.72;29.66;101069.25;5056765;28;20501;-76
2022/06/14 06:25:42;;;;;;;5.85;1.90;;;;;;;33.79;29.80;101071.56;5052241;28;20423;-77
2022/06/14 06:28:13;;;;;;;3.78;1.90;;;;;;;33.85;29.35;101055.72;5053906;28;20433;-76
2022/06/14 06:30:47;;;;;;;4.00;1.70;;;;;;;34.06;28.92;101072.44;5051189;28;20471;-75
2022/06/14 06:33:16;;;;;;;3.20;1.53;;;;;;;34.25;28.72;101072.97;5051005;28;20814;-75
2022/06/14 06:35:47;;;;;;;5.30;1.60;;;;;;;34.24;28.29;101078.81;5049631;28;20499;-75
2022/06/14 06:38:29;;;;;;;2.40;1.80;;;;;;;34.58;27.93;101083.50;5051864;28;20482;-75
2022/06/14 06:43:53;;;;;;;4.75;1.60;;;;;;;35.14;26.89;101075.38;5061836;28;20472;-74
2022/06/14 06:46:26;;;;;;;2.13;1.30;;;;;;;35.35;26.12;101077.47;5048543;28;20940;-74
2022/06/14 06:49:00;;;;;;;1.45;1.30;;;;;;;35.29;25.53;101076.00;5064301;28;20934;-72
2022/06/14 06:51:36;;;;;;;3.00;1.50;;;;;;;35.06;25.84;101087.22;5054684;28;20416;-74
2022/06/14 06:54:09;;;;;;;2.45;1.15;;;;;;;34.66;26.10;101085.47;5055640;28;20413;-74
2022/06/14 06:56:39;;;;;;;2.85;1.70;;;;;;;34.37;26.23;101088.03;5055749;28;20499;-73
2022/06/14 06:59:14;;;;;;;1.67;1.27;;;;;;;33.96;26.34;101095.56;5056471;28;20470;-74
2022/06/14 07:01:43;;;;;;;2.15;1.30;;;;;;;33.57;26.52;101091.66;5066853;28;20499;-73
2022/06/14 07:04:19;;;;;;;3.00;1.20;;;;;;;33.18;26.73;101104.22;5064225;28;20446;-75
2022/06/14 07:06:50;;;;;;;2.97;1.20;;;;;;;32.79;27.16;101104.88;5063381;28;20507;-74
2022/06/14 07:09:24;;;;;;;2.78;1.35;;;;;;;32.61;27.83;101109.41;5057470;28;20439;-74
2022/06/14 07:11:56;;;;;;;1.90;1.30;;;;;;;32.48;28.08;101109.09;5068404;28;20427;-73
2022/06/14 07:14:26;;;;;;;1.55;1.30;;;;;;;32.46;28.78;101113.28;5057335;28;20503;-73
2022/06/14 07:17:03;;;;;;;2.93;1.40;;;;;;;32.41;28.99;101113.41;5065470;28;20854;-72
2022/06/14 07:19:37;;;;;;;3.00;1.30;;;;;;;32.34;29.20;101113.81;5060447;28;20449;-73
2022/06/14 07:22:11;;;;;;;2.25;1.27;;;;;;;32.13;28.82;101122.47;5058571;28;20415;-71
2022/06/14 07:24:54;;;;;;;3.72;1.23;;;;;;;31.93;28.89;101120.94;5057090;28;20441;-72
2022/06/14 07:27:25;;;;;;;1.23;1.13;;;;;;;31.83;28.97;101119.19;5063459;28;20454;-72
2022/06/14 07:29:58;;;;;;;2.97;1.65;;;;;;;31.89;29.14;101125.41;5069365;28;20498;-71
2022/06/14 07:32:30;;;;;;;2.15;1.30;;;;;;;31.81;29.44;101126.09;5059558;28;20538;-72
2022/06/14 07:34:58;;;;;;;3.78;1.50;;;;;;;31.59;29.33;101133.09;5058598;28;20976;-72
2022/06/14 07:37:33;;;;;;;1.60;1.23;;;;;;;31.54;29.88;101132.38;5069866;28;20767;-71
2022/06/14 07:40:07;;;;;;;2.00;1.60;;;;;;;31.39;29.74;101138.91;5066354;28;20910;-72
2022/06/14 07:42:42;;;;;;;1.48;1.25;;;;;;;31.36;29.83;101132.09;5062909;28;20494;-72
2022/06/14 07:45:17;;;;;;;3.47;1.60;;;;;;;31.33;29.50;101142.84;5067120;28;20412;-71
2022/06/14 07:47:51;;;;;;;3.15;1.23;;;;;;;31.23;29.62;101141.91;5063008;28;20407;-73
2022/06/14 07:50:23;;;;;;;2.23;1.30;;;;;;;31.38;29.64;101142.75;5071107;28;20427;-73
2022/06/14 07:52:54;;;;;;;2.20;1.27;;;;;;;31.43;29.50;101135.25;5071254;28;20486;-73
2022/06/14 07:55:26;;;;;;;3.25;1.38;;;;;;;31.44;29.33;101138.81;5066658;28;20803;-72
2022/06/14 07:57:58;;;;;;;3.63;1.83;;;;;;;31.42;29.20;101143.78;5062273;28;20893;-72
2022/06/14 08:03:28;;;;;;;2.67;1.33;;;;;;;31.49;29.01;101154.38;5063623;28;20496;-73
2022/06/14 08:06:02;;;;;;;2.20;1.50;;;;;;;31.43;27.27;101145.41;5062400;28;20434;-72
2022/06/14 08:08:39;;;;;;;4.30;1.88;;;;;;;31.43;26.59;101142.66;5067157;28;20435;-70
2022/06/14 08:11:11;;;;;;;2.58;1.50;;;;;;;31.36;26.89;101144.97;5051283;28;20512;-72
2022/06/14 08:13:46;;;;;;;2.50;1.20;;;;;;;31.40;26.37;101140.53;5065400;28;20785;-72
2022/06/14 08:16:15;;;;;;;2.05;1.20;;;;;;;31.46;25.79;101144.81;5070803;28;20501;-72
2022/06/14 08:18:49;;;;;;;4.63;1.50;;;;;;;31.47;27.50;101164.78;5060375;28;20444;-72
2022/06/14 08:21:26;;;;;;;2.95;1.63;;;;;;;31.56;28.09;101163.81;5068680;28;20411;-72
2022/06/14 08:23:58;;;;;;;2.17;1.60;;;;;;;31.67;28.18;101152.69;5066149;28;20414;-72
2022/06/14 08:26:32;;;;;;;3.05;1.63;;;;;;;31.71;28.46;101157.28;5059613;28;20446;-72
2022/06/14 08:29:05;;;;;;;3.30;1.70;;;;;;;31.67;27.97;101152.69;5068548;28;20588;-73
2022/06/14 08:31:37;;;;;;;2.38;1.50;;;;;;;31.74;27.67;101170.34;5059630;28;20873;-73
2022/06/14 08:34:14;;;;;;;2.10;1.70;;;;;;;31.72;27.74;101160.81;5054430;28;20506;-73
2022/06/14 08:36:53;;;;;;;4.03;1.90;;;;;;;31.55;27.70;101164.97;5059926;28;20485;-74
2022/06/14 08:39:27;;;;;;;3.10;1.50;;;;;;;31.49;27.58;101157.13;5056055;28;20450;-74
2022/06/14 08:42:02;;;;;;;2.60;1.40;;;;;;;31.52;26.04;101168.28;5060298;28;20483;-74
2022/06/14 08:44:35;;;;;;;4.53;1.50;;;;;;;31.39;26.14;101169.03;5050193;28;20814;-74
2022/06/14 08:47:09;;;;;;;2.00;1.30;;;;;;;31.36;25.80;101170.44;5057811;28;20494;-72
2022/06/14 08:49:50;;;;;;;2.90;1.92;;;;;;;31.38;26.66;101176.44;5066600;28;20849;-73
2022/06/14 08:52:50;;;;;;;2.43;1.70;;;;;;;31.23;27.36;101154.78;5061518;28;20408;-72
2022/06/14 08:55:54;;;;;;;3.58;1.92;;;;;;;31.29;27.72;101172.75;5033472;28;20420;-73
2022/06/14 08:58:53;;;;;;;3.30;2.25;;;;;;;31.35;27.37;101170.75;5060765;28;20474;-73
2022/06/14 09:01:32;;;;;;;2.70;1.90;;;;;;;31.36;27.34;101180.59;5065499;28;20494;-72
2022/06/14 09:04:35;;;;;;;3.65;1.80;;;;;;;31.29;27.33;101172.75;5056882;28;20461;-72
2022/06/14 09:07:32;;;;;;;2.40;1.80;;;;;;;31.29;28.06;101180.97;5058770;28;20494;-72
2022/06/14 09:10:28;;;;;;;4.85;2.10;;;;;;;31.13;27.52;101176.84;5066446;28;20497;-72
2022/06/14 09:13:26;;;;;;;4.43;1.98;;;;;;;31.06;28.28;101186.25;5063751;28;20445;-72
2022/06/14 09:16:35;;;;;;;2.20;1.90;;;;;;;31.11;28.02;101187.28;5059651;28;20954;-73
2022/06/14 09:19:22;;;;;;;2.60;1.88;;;;;;;31.03;27.95;101183.31;5008642;28;20980;-72
2022/06/14 09:22:06;;;;;;;3.72;2.10;;;;;;;31.12;28.56;101177.97;5065634;28;20525;-73
2022/06/14 09:24:54;;;;;;;3.90;2.10;;;;;;;31.20;28.48;101180.81;5065291;28;20426;-74
2022/06/14 09:27:36;;;;;;;4.20;1.90;;;;;;;31.15;27.93;101180.94;5061076;28;20498;-74
2022/06/14 09:30:21;;;;;;;3.53;1.90;;;;;;;31.07;27.90;101176.13;5069646;28;20506;-73
2022/06/14 09:33:19;;;;;;;3.45;1.70;;;;;;;31.04;28.36;101180.28;5069660;28;20439;-74
2022/06/14 09:36:25;;;;;;;2.90;1.73;;;;;;;31.02;28.18;101177.00;5065092;28;20419;-74
2022/06/14 09:39:13;;;;;;;2.53;1.63;;;;;;;31.06;28.14;101185.44;5037555;28;20456;-73
2022/06/14 09:42:13;;;;;;;5.13;1.90;;;;;;;31.10;28.65;101181.00;5067685;28;20498;-74
2022/06/14 09:45:21;;;;;;;2.22;1.50;;;;;;;31.14;28.34;101178.50;5061482;28;20447;-74
2022/06/14 09:48:18;;;;;;;1.80;1.50;;;;;;;31.09;28.57;101182.09;5039140;28;20498;-74
2022/06/14 09:51:18;;;;;;;3.58;1.50;;;;;;;31.08;28.46;101172.28;5067973;28;20434;-74
2022/06/14 09:54:27;;;;;;;2.15;1.55;;;;;;;31.11;28.17;101188.09;5042618;28;20501;-74
2022/06/14 09:57:42;;;;;;;2.70;1.70;;;;;;;31.09;28.24;101181.31;5058944;28;20500;-75
2022/06/14 10:00:19;;;;;;;2.73;1.40;;;;;;;31.14;28.01;101173.81;5038544;28;20442;-74
2022/06/14 10:03:35;;;;;;;3.00;1.40;;;;;;;31.22;28.61;101178.63;5065447;28;20507;-72
2022/06/14 10:06:37;;;;;;;2.53;1.27;;;;;;;31.26;27.57;101173.38;5064495;28;20864;-74
2022/06/14 10:09:22;;;;;;;2.35;1.20;;;;;;;31.30;27.52;101181.81;5046000;28;20863;-74
2022/06/14 10:12:07;;;;;;;2.22;1.50;;;;;;;31.47;28.11;101178.50;5057594;28;20515;-72
2022/06/14 10:14:45;;;;;;;3.00;1.20;;;;;;;31.60;27.87;101172.25;5068495;28;20426;-73
2022/06/14 10:17:41;;;;;;;5.65;2.00;;;;;;;31.53;27.42;101178.16;5068465;28;20489;-74
2022/06/14 10:20:42;;;;;;;1.70;1.20;;;;;;;31.33;27.35;101179.28;5068590;28;20457;-73
2022/06/14 10:23:27;;;;;;;2.50;1.10;;;;;;;31.31;27.27;101177.94;5052510;28;20414;-72
2022/06/14 10:29:05;;;;;;;2.63;1.08;;;;;;;31.11;25.89;101182.63;5063511;28;20496;-72
2022/06/14 10:31:46;;;;;;;1.77;1.02;;;;;;;31.02;25.91;101187.13;5065748;28;21009;-71
2022/06/14 10:34:23;;;;;;;1.45;1.10;;;;;;;30.89;26.22;101188.66;5064589;28;20442;-72
2022/06/14 10:37:08;;;;;;;2.00;1.00;;;;;;;30.77;26.65;101171.88;5066070;28;20422;-73
2022/06/14 10:40:16;;;;;;;2.20;1.20;;;;;;;30.59;27.09;101177.03;5062947;28;20425;-73
2022/06/14 10:42:52;;;;;;;3.58;1.00;;;;;;;30.52;27.38;101176.56;5063610;28;20414;-72
2022/06/14 10:45:25;;;;;;;2.13;1.00;;;;;;;30.52;27.48;101173.84;5071348;28;20491;-72
2022/06/14 10:48:17;;;;;;;3.17;1.20;;;;;;;30.68;27.68;101179.91;5068517;28;21050;-73
2022/06/14 10:50:55;;;;;;;3.83;1.38;;;;;;;30.59;27.55;101166.06;5070968;28;21003;-72
2022/06/14 10:53:36;;;;;;;4.55;1.30;;;;;;;30.51;27.83;101168.69;5066338;28;20498;-73
2022/06/14 10:56:32;;;;;;;2.13;1.00;;;;;;;30.44;27.98;101167.09;5071655;28;20505;-72
2022/06/14 10:59:34;;;;;;;1.07;0.90;;;;;;;30.34;28.73;101159.00;5066819;28;20417;-72
2022/06/14 11:02:10;;;;;;;2.65;1.40;;;;;;;30.29;29.34;101159.06;5047751;28;20889;-71
2022/06/14 11:04:45;;;;;;;2.67;1.10;;;;;;;30.33;29.39;101159.31;5068282;28;20943;-73
2022/06/14 11:07:34;;;;;;;3.40;1.25;;;;;;;30.24;29.26;101159.94;5058706;28;20934;-72
2022/06/14 11:10:30;;;;;;;2.25;1.20;;;;;;;30.28;28.51;101160.16;5070834;28;20521;-73
2022/06/14 11:13:09;;;;;;;4.90;1.20;;;;;;;30.25;28.46;101158.84;5065572;28;20450;-73
2022/06/14 11:15:43;;;;;;;3.03;1.07;;;;;;;30.22;28.10;101158.59;5067794;28;20810;-73
2022/06/14 11:18:34;;;;;;;2.95;1.30;;;;;;;30.24;28.13;101159.94;5056679;28;20888;-71
2022/06/14 11:21:09;;;;;;;2.97;1.20;;;;;;;30.34;28.15;101164.47;5069093;28;20429;-73
2022/06/14 11:23:43;;;;;;;3.05;1.02;;;;;;;30.30;28.51;101153.28;5069367;28;20418;-73
2022/06/14 11:26:16;;;;;;;1.85;1.10;;;;;;;30.27;27.57;101153.06;5071238;28;20425;-73
2022/06/14 11:28:51;;;;;;;1.70;1.00;;;;;;;30.30;27.94;101141.53;5071713;28;20415;-72
2022/06/14 11:31:25;;;;;;;4.80;1.20;;;;;;;30.16;28.19;101154.28;5069721;28;20510;-72
2022/06/14 11:34:10;;;;;;;2.17;1.02;;;;;;;30.09;27.91;101138.25;5071017;28;20863;-71
2022/06/14 11:36:56;;;;;;;4.10;1.63;;;;;;;30.06;28.86;101134.16;5065881;28;20425;-71
2022/06/14 11:39:35;;;;;;;2.40;1.08;;;;;;;30.21;28.72;101130.44;5055092;28;20407;-72
2022/06/14 11:42:06;;;;;;;1.95;1.10;;;;;;;30.20;28.92;101130.75;5060703;28;20443;-74
2022/06/14 11:45:02;;;;;;;2.00;1.20;;;;;;;30.20;28.97;101128.00;5070608;28;20498;-72
2022/06/14 11:47:35;;;;;;;2.53;1.35;;;;;;;30.04;29.54;101122.72;5058978;28;20801;-73
2022/06/14 11:50:14;;;;;;;2.63;1.20;;;;;;;30.02;29.74;101126.84;5070682;28;20469;-72
2022/06/14 11:52:55;;;;;;;2.80;1.27;;;;;;;30.04;29.91;101117.25;5067390;28;20507;-72
2022/06/14 11:55:29;;;;;;;2.30;1.00;;;;;;;30.03;29.30;101123.00;5067726;28;20454;-73
2022/06/14 11:58:09;;;;;;;2.35;1.23;;;;;;;29.95;29.90;101129.13;5065768;28;20511;-73
2022/06/14 12:00:57;;;;;;;2.90;1.33;;;;;;;29.85;29.57;101128.09;5065799;28;20458;-73
2022/06/14 12:03:56;;;;;;;2.03;1.20;;;;;;;29.83;29.39;101126.78;5057649;28;20494;-72
2022/06/14 12:06:36;;;;;;;2.35;1.02;;;;;;;29.89;29.22;101115.50;5068202;28;20529;-73
2022/06/14 12:09:22;;;;;;;1.73;1.20;;;;;;;29.95;29.39;101132.66;5069220;28;20419;-72
2022/06/14 12:11:55;;;;;;;7.47;1.25;;;;;;;29.87;29.98;101120.47;5059875;28;21413;-74
2022/06/14 12:14:42;;;;;;;2.90;1.27;;;;;;;29.92;30.06;101111.38;5065586;28;20414;-74
2022/06/14 12:17:20;;;;;;;2.03;1.42;;;;;;;29.87;29.76;101117.72;5063268;28;20470;-73
2022/06/14 12:19:53;;;;;;;2.83;1.33;;;;;;;29.77;29.66;101123.28;5056234;28;20415;-73
2022/06/14 12:22:28;;;;;;;2.55;1.35;;;;;;;29.79;28.66;101118.34;5068206;28;20423;-71
2022/06/14 12:27:45;;;;;;;4.20;1.20;;;;;;;29.84;29.46;101115.56;5055656;28;20549;-74
2022/06/14 12:30:14;;;;;;;2.75;1.40;;;;;;;29.78;29.38;101111.25;5063228;28;20511;-72